createdAt,value
2019-03-17T00:01:23.829Z,98299.25
2019-03-17T00:03:54.202Z,98295.47
2019-03-17T00:06:24.660Z,98293.47
2019-03-17T00:08:56.322Z,98287.21
2019-03-17T00:11:28.265Z,98297.08
2019-03-17T00:13:58.653Z,98300.04
2019-03-17T00:16:29.150Z,98296.89
2019-03-17T00:18:59.578Z,98297.05
2019-03-17T00:21:30.065Z,98298.84
2019-03-17T00:24:00.495Z,98301.16
2019-03-17T00:26:33.676Z,98299.88
2019-03-17T00:29:04.127Z,98298.05
2019-03-17T00:31:34.570Z,98303.67
2019-03-17T00:34:06.577Z,98310.58
2019-03-17T00:36:38.957Z,98311.57
2019-03-17T00:39:09.046Z,98313.69
2019-03-17T00:41:43.348Z,98316.97
2019-03-17T00:44:16.253Z,98319.13
2019-03-17T00:46:47.744Z,98327.63
2019-03-17T00:49:18.233Z,98331.45
2019-03-17T00:51:48.842Z,98332.94
2019-03-17T00:54:19.311Z,98333.25
2019-03-17T00:56:51.348Z,98340.31
2019-03-17T00:59:21.849Z,98343.11
2019-03-17T01:01:52.456Z,98347.27
2019-03-17T01:04:22.886Z,98358.65
2019-03-17T01:06:53.346Z,98357.84
2019-03-17T01:09:25.396Z,98357.84
2019-03-17T01:11:55.886Z,98361.32
2019-03-17T01:14:26.826Z,98363.08
2019-03-17T01:16:57.279Z,98360.76
2019-03-17T01:19:27.673Z,98364.66
2019-03-17T01:21:58.063Z,98364.87
2019-03-17T01:24:30.530Z,98365.19
2019-03-17T01:27:04.021Z,98374.94
2019-03-17T01:29:35.310Z,98371.77
2019-03-17T01:32:05.752Z,98368.45
2019-03-17T01:34:36.322Z,98369.89
2019-03-17T01:37:06.785Z,98378.14
2019-03-17T01:39:37.193Z,98378.63
2019-03-17T01:42:09.816Z,98381.89
2019-03-17T01:44:41.810Z,98378.98
2019-03-17T01:47:14.921Z,98392.69
2019-03-17T01:49:45.436Z,98396.12
2019-03-17T01:52:15.848Z,98391.89
2019-03-17T01:54:46.283Z,98391.89
2019-03-17T01:57:16.839Z,98395.84
2019-03-17T01:59:47.242Z,98387.42
2019-03-17T02:02:17.769Z,98395.33
2019-03-17T02:04:48.216Z,98396.84
2019-03-17T02:07:18.595Z,98396.53
2019-03-17T02:09:49.061Z,98402.16
2019-03-17T02:12:19.571Z,98411.86
2019-03-17T02:14:50.007Z,98403.52
2019-03-17T02:17:20.407Z,98417.34
2019-03-17T02:19:52.396Z,98416.55
2019-03-17T02:22:22.818Z,98418.86
2019-03-17T02:24:53.232Z,98424.45
2019-03-17T02:27:23.672Z,98431.00
2019-03-17T02:29:55.767Z,98429.88
2019-03-17T02:32:27.767Z,98433.16
2019-03-17T02:34:58.414Z,98436.95
2019-03-17T02:37:30.866Z,98439.59
2019-03-17T02:40:02.512Z,98451.77
2019-03-17T02:42:33.015Z,98456.56
2019-03-17T02:45:03.608Z,98459.20
2019-03-17T02:47:34.786Z,98459.67
2019-03-17T02:50:09.445Z,98469.94
2019-03-17T02:52:39.988Z,98472.22
2019-03-17T02:55:10.369Z,98473.06
2019-03-17T02:57:42.954Z,98485.13
2019-03-17T03:00:13.403Z,98491.24
2019-03-17T03:02:43.834Z,98491.25
2019-03-17T03:05:14.268Z,98491.09
2019-03-17T03:07:44.707Z,98495.00
2019-03-17T03:10:15.189Z,98503.11
2019-03-17T03:12:45.707Z,98509.06
2019-03-17T03:15:18.717Z,98502.15
2019-03-17T03:17:49.151Z,98507.43
2019-03-17T03:20:19.544Z,98503.64
2019-03-17T03:22:49.956Z,98515.86
2019-03-17T03:25:22.434Z,98517.87
2019-03-17T03:27:52.521Z,98521.98
2019-03-17T03:30:22.999Z,98520.02
2019-03-17T03:32:56.045Z,98525.62
2019-03-17T03:35:27.335Z,98523.63
2019-03-17T03:37:57.722Z,98535.17
2019-03-17T03:40:28.180Z,98536.69
2019-03-17T03:42:58.735Z,98539.49
2019-03-17T03:45:29.311Z,98544.45
2019-03-17T03:48:05.030Z,98544.09
2019-03-17T03:50:35.413Z,98545.25
2019-03-17T03:53:05.833Z,98548.72
2019-03-17T03:55:42.162Z,98557.75
2019-03-17T03:58:11.397Z,98567.98
2019-03-17T04:00:44.665Z,98565.03
2019-03-17T04:03:15.141Z,98558.63
2019-03-17T04:05:45.550Z,98570.98
2019-03-17T04:08:15.972Z,98574.95
2019-03-17T04:10:48.672Z,98577.91
2019-03-17T04:13:19.133Z,98581.38
2019-03-17T04:15:54.537Z,98585.18
2019-03-17T04:18:24.680Z,98591.46
2019-03-17T04:20:55.163Z,98587.98
2019-03-17T04:23:25.786Z,98596.42
2019-03-17T04:25:58.788Z,98605.81
2019-03-17T04:28:29.232Z,98604.65
2019-03-17T04:30:59.627Z,98607.61
2019-03-17T04:33:30.135Z,98615.09
2019-03-17T04:36:00.679Z,98619.53
2019-03-17T04:38:31.123Z,98616.58
2019-03-17T04:43:49.472Z,98628.30
2019-03-17T04:46:25.020Z,98625.23
2019-03-17T04:48:55.361Z,98626.90
2019-03-17T04:51:28.505Z,98629.34
2019-03-17T04:54:04.942Z,98639.27
2019-03-17T04:56:39.686Z,98636.50
2019-03-17T04:59:11.753Z,98647.55
2019-03-17T05:01:42.998Z,98647.38
2019-03-17T05:04:17.373Z,98647.11
2019-03-17T05:06:52.959Z,98655.52
2019-03-17T05:09:43.705Z,98661.67
2019-03-17T05:15:14.989Z,98677.84
2019-03-17T05:17:52.690Z,98683.47
2019-03-17T05:20:25.719Z,98683.31
2019-03-17T05:22:57.979Z,98695.16
2019-03-17T05:25:29.953Z,98702.28
2019-03-17T05:28:00.750Z,98705.29
2019-03-17T05:30:32.768Z,98710.77
2019-03-17T05:33:06.030Z,98719.86
2019-03-17T05:35:37.622Z,98716.77
2019-03-17T05:38:08.259Z,98733.06
2019-03-17T05:40:38.959Z,98726.84
2019-03-17T05:43:09.470Z,98735.77
2019-03-17T05:45:41.676Z,98733.13
2019-03-17T05:48:12.815Z,98731.81
2019-03-17T05:50:54.916Z,98742.67
2019-03-17T05:53:29.855Z,98744.27
2019-03-17T05:56:06.594Z,98750.80
2019-03-17T05:58:55.591Z,98755.00
2019-03-17T06:01:29.778Z,98761.10
2019-03-17T06:04:00.349Z,98760.24
2019-03-17T06:06:32.382Z,98760.98
2019-03-17T06:09:06.094Z,98760.05
2019-03-17T06:11:36.535Z,98766.33
2019-03-17T06:14:12.838Z,98771.78
2019-03-17T06:16:45.173Z,98773.87
2019-03-17T06:19:15.698Z,98782.03
2019-03-17T06:21:49.001Z,98788.66
2019-03-17T06:24:19.577Z,98780.87
2019-03-17T06:26:51.585Z,98785.66
2019-03-17T06:29:25.020Z,98802.20
2019-03-17T06:31:55.465Z,98795.11
2019-03-17T06:34:29.338Z,98799.39
2019-03-17T06:37:01.627Z,98798.73
2019-03-17T06:39:34.709Z,98797.91
2019-03-17T06:42:07.612Z,98806.53
2019-03-17T06:44:38.082Z,98810.13
2019-03-17T06:47:10.364Z,98809.83
2019-03-17T06:49:47.128Z,98812.29
2019-03-17T06:52:17.565Z,98819.94
2019-03-17T06:54:48.185Z,98826.36
2019-03-17T06:57:20.643Z,98824.86
2019-03-17T06:59:53.154Z,98831.99
2019-03-17T07:02:23.835Z,98830.51
2019-03-17T07:04:55.992Z,98836.63
2019-03-17T07:07:28.284Z,98835.81
2019-03-17T07:09:59.871Z,98849.38
2019-03-17T07:12:38.037Z,98845.70
2019-03-17T07:15:13.431Z,98849.19
2019-03-17T14:34:33.764Z,99322.58
2019-03-17T14:37:06.833Z,99321.02
2019-03-17T14:39:41.376Z,99333.16
2019-03-17T14:42:16.490Z,99334.28
2019-03-17T14:44:50.459Z,99340.59
2019-03-17T14:47:22.335Z,99344.22
2019-03-17T14:49:56.331Z,99347.95
2019-03-17T14:52:35.020Z,99347.20
2019-03-17T14:55:06.873Z,99349.05
2019-03-17T14:57:37.365Z,99346.57
2019-03-17T15:00:22.881Z,99363.92
2019-03-17T15:02:56.510Z,99357.09
2019-03-17T15:05:32.759Z,99365.39
2019-03-17T15:08:15.220Z,99370.08
2019-03-17T15:11:04.936Z,99378.96
2019-03-17T15:13:29.036Z,99384.41
2019-03-17T15:16:05.258Z,99393.83
2019-03-17T15:18:36.459Z,99400.30
2019-03-17T15:21:08.586Z,99398.19
2019-03-17T15:23:40.740Z,99402.38
2019-03-17T15:26:14.734Z,99410.33
2019-03-17T15:28:45.721Z,99414.75
2019-03-17T15:31:22.895Z,99415.23
2019-03-17T15:33:56.865Z,99419.05
2019-03-17T15:36:32.006Z,99420.19
2019-03-17T15:39:08.605Z,99426.81
2019-03-17T15:41:41.353Z,99436.37
2019-03-17T15:44:25.923Z,99446.55
2019-03-17T15:46:58.473Z,99436.35
2019-03-17T15:49:34.208Z,99440.95
2019-03-17T15:52:04.801Z,99444.63
2019-03-17T15:54:37.427Z,99448.09
2019-03-17T15:57:11.012Z,99449.44
2019-03-17T15:59:41.725Z,99458.02
2019-03-17T16:02:16.184Z,99459.13
2019-03-17T16:04:55.251Z,99460.48
2019-03-17T16:07:54.748Z,99461.95
2019-03-17T16:10:20.197Z,99454.31
2019-03-17T16:12:50.822Z,99468.03
2019-03-17T16:15:24.137Z,99461.38
2019-03-17T16:18:01.827Z,99464.03
2019-03-17T16:20:35.103Z,99469.50
2019-03-17T16:23:05.725Z,99473.44
2019-03-17T16:25:41.280Z,99479.06
2019-03-17T16:28:14.120Z,99483.33
2019-03-17T16:30:50.967Z,99479.59
2019-03-17T16:36:24.309Z,99488.59
2019-03-17T16:42:19.848Z,99489.56
2019-03-17T16:48:13.826Z,99513.59
2019-03-17T16:53:51.037Z,99523.48
2019-03-17T18:16:07.433Z,99599.95
2019-03-17T18:18:43.255Z,99600.42
2019-03-17T18:24:56.668Z,99614.47
2019-03-17T18:27:32.150Z,99613.91
2019-03-17T18:33:47.108Z,99618.84
2019-03-17T18:39:14.459Z,99623.94
2019-03-17T18:42:03.027Z,99630.92
2019-03-17T18:44:42.209Z,99631.66
2019-03-17T18:47:26.380Z,99636.39
2019-03-17T18:50:19.470Z,99639.03
2019-03-17T18:52:57.648Z,99641.92
2019-03-17T18:58:48.699Z,99643.27
2019-03-17T19:01:36.034Z,99648.47
2019-03-17T19:04:26.582Z,99654.08
2019-03-17T19:07:09.558Z,99645.96
2019-03-17T19:09:56.161Z,99651.69
2019-03-17T19:12:29.251Z,99654.81
2019-03-17T19:15:18.115Z,99654.14
2019-03-17T19:17:54.920Z,99649.64
2019-03-17T19:20:47.461Z,99660.56
2019-03-17T21:00:46.110Z,99690.95
2019-03-17T21:03:30.951Z,99685.77
2019-03-17T21:13:09.300Z,99690.05
2019-03-17T21:25:46.174Z,99698.82
2019-03-17T21:31:35.316Z,99700.14
2019-03-17T21:34:33.581Z,99710.63
2019-03-17T21:43:24.325Z,99713.55
2019-03-17T21:46:13.823Z,99714.07
2019-03-17T21:59:11.202Z,99728.52
2019-03-17T22:02:14.180Z,99731.73
2019-03-17T22:08:19.165Z,99736.75
2019-03-17T22:14:18.899Z,99748.52
2019-03-17T22:16:56.060Z,99753.50
2019-03-17T22:19:47.556Z,99760.16
2019-03-17T22:22:20.672Z,99766.92
2019-03-17T22:24:54.264Z,99762.75
2019-03-17T22:27:33.472Z,99763.59
2019-03-17T22:36:06.145Z,99785.67
2019-03-17T22:38:42.256Z,99779.65
2019-03-17T22:41:16.825Z,99784.59
2019-03-17T22:43:49.172Z,99783.95
2019-03-17T22:46:26.323Z,99779.19
2019-03-17T22:48:58.809Z,99780.27
2019-03-17T22:51:31.102Z,99789.66
2019-03-17T22:54:01.594Z,99791.31
2019-03-17T22:56:32.260Z,99794.70
2019-03-17T22:59:02.986Z,99801.13
2019-03-17T23:01:35.236Z,99793.39
2019-03-17T23:04:07.606Z,99801.83
2019-03-17T23:06:38.179Z,99800.51
2019-03-17T23:09:08.835Z,99804.57
2019-03-17T23:11:39.465Z,99810.30
2019-03-17T23:14:17.838Z,99810.41
2019-03-17T23:19:39.323Z,99808.17
2019-03-17T23:22:10.986Z,99808.69
2019-03-17T23:24:42.548Z,99807.59
2019-03-17T23:27:13.233Z,99806.53
2019-03-17T23:29:45.076Z,99807.25
2019-03-17T23:32:22.327Z,99803.27
2019-03-17T23:34:57.208Z,99799.83
2019-03-17T23:37:44.173Z,99812.52
2019-03-17T23:40:15.959Z,99812.64
2019-03-17T23:42:48.733Z,99817.55
2019-03-17T23:45:19.956Z,99817.33
2019-03-17T23:47:50.515Z,99812.11
2019-03-17T23:50:24.590Z,99821.43
2019-03-17T23:52:56.665Z,99828.23
2019-03-17T23:55:27.192Z,99826.25
2019-03-17T23:57:57.755Z,99831.32
